createdAt,value
2022-10-25T00:00:39.057Z,10.70
2022-10-25T00:03:08.215Z,10.70
2022-10-25T00:05:35.607Z,10.80
2022-10-25T00:08:02.715Z,10.80
2022-10-25T00:10:30.207Z,10.80
2022-10-25T00:12:57.439Z,10.70
2022-10-25T00:15:24.536Z,10.80
2022-10-25T00:17:51.483Z,10.80
2022-10-25T00:20:20.369Z,10.80
2022-10-25T00:22:47.640Z,10.80
2022-10-25T00:25:14.953Z,10.70
2022-10-25T00:27:41.880Z,10.70
2022-10-25T00:30:10.317Z,10.70
2022-10-25T00:32:37.478Z,10.70
2022-10-25T00:35:05.314Z,10.70
2022-10-25T00:37:33.679Z,10.70
2022-10-25T00:40:00.638Z,10.70
2022-10-25T00:42:27.672Z,10.60
2022-10-25T00:44:57.270Z,10.70
2022-10-25T00:47:45.059Z,10.60
2022-10-25T00:50:33.692Z,10.60
2022-10-25T00:53:07.914Z,10.60
2022-10-25T00:55:35.807Z,10.60
2022-10-25T00:58:06.942Z,10.60
2022-10-25T01:00:34.470Z,10.60
2022-10-25T01:03:01.943Z,10.60
2022-10-25T01:05:28.946Z,10.60
2022-10-25T01:07:55.947Z,10.70
2022-10-25T01:10:24.257Z,10.60
2022-10-25T01:12:52.184Z,10.60
2022-10-25T01:15:21.456Z,10.60
2022-10-25T01:17:59.186Z,10.60
2022-10-25T01:20:53.247Z,10.60
2022-10-25T01:23:35.412Z,10.60
2022-10-25T01:26:47.129Z,10.60
2022-10-25T01:29:33.271Z,10.60
2022-10-25T01:32:07.501Z,10.60
2022-10-25T01:34:41.007Z,10.60
2022-10-25T01:37:14.541Z,10.60
2022-10-25T01:39:48.317Z,10.60
2022-10-25T01:42:25.619Z,10.60
2022-10-25T01:45:02.499Z,10.60
2022-10-25T01:47:37.791Z,10.60
2022-10-25T01:50:08.398Z,10.60
2022-10-25T01:52:35.356Z,10.60
2022-10-25T01:55:02.826Z,10.50
2022-10-25T01:57:47.427Z,10.50
2022-10-25T02:00:17.888Z,10.50
2022-10-25T02:03:11.097Z,10.50
2022-10-25T02:05:48.768Z,10.50
2022-10-25T02:08:24.518Z,10.50
2022-10-25T02:10:59.157Z,10.50
2022-10-25T02:13:32.040Z,10.50
2022-10-25T02:16:02.914Z,10.50
2022-10-25T02:18:35.726Z,10.50
2022-10-25T02:21:05.213Z,10.50
2022-10-25T02:23:35.415Z,10.50
2022-10-25T02:26:03.770Z,10.50
2022-10-25T02:28:32.496Z,10.40
2022-10-25T02:31:00.825Z,10.40
2022-10-25T02:33:27.829Z,10.40
2022-10-25T02:36:14.141Z,10.40
2022-10-25T02:38:42.473Z,10.40
2022-10-25T02:41:09.675Z,10.40
2022-10-25T02:43:36.601Z,10.30
2022-10-25T02:46:06.266Z,10.30
2022-10-25T02:48:33.511Z,10.30
2022-10-25T02:51:00.434Z,10.30
2022-10-25T02:53:28.908Z,10.30
2022-10-25T02:56:02.990Z,10.30
2022-10-25T02:58:31.842Z,10.30
2022-10-25T03:00:59.726Z,10.30
2022-10-25T03:03:28.036Z,10.30
2022-10-25T03:05:55.232Z,10.30
2022-10-25T03:08:22.964Z,10.30
2022-10-25T03:10:51.918Z,10.30
2022-10-25T03:13:18.854Z,10.30
2022-10-25T03:15:46.538Z,10.30
2022-10-25T03:18:14.533Z,10.30
2022-10-25T03:20:41.812Z,10.30
2022-10-25T03:23:09.181Z,10.30
2022-10-25T03:25:36.079Z,10.30
2022-10-25T03:28:04.524Z,10.30
2022-10-25T03:30:32.222Z,10.40
2022-10-25T03:32:59.612Z,10.40
2022-10-25T03:35:26.876Z,10.40
2022-10-25T03:37:54.046Z,10.40
2022-10-25T03:40:21.503Z,10.40
2022-10-25T03:42:48.416Z,10.30
2022-10-25T03:45:16.848Z,10.40
2022-10-25T03:47:43.899Z,10.40
2022-10-25T03:50:11.428Z,10.40
2022-10-25T03:52:38.527Z,10.40
2022-10-25T03:55:06.762Z,10.40
2022-10-25T03:57:33.841Z,10.40
2022-10-25T04:00:00.912Z,10.50
2022-10-25T04:02:29.199Z,10.40
2022-10-25T04:04:56.082Z,10.40
2022-10-25T04:07:23.031Z,10.40
2022-10-25T04:09:49.883Z,10.40
2022-10-25T04:12:16.849Z,10.40
2022-10-25T04:14:43.873Z,10.30
2022-10-25T04:17:10.800Z,10.30
2022-10-25T04:19:39.078Z,10.30
2022-10-25T04:22:06.008Z,10.30
2022-10-25T04:24:32.973Z,10.30
2022-10-25T04:26:59.864Z,10.30
2022-10-25T04:29:26.850Z,10.30
2022-10-25T04:31:53.827Z,10.30
2022-10-25T04:34:20.799Z,10.30
2022-10-25T04:36:49.063Z,10.30
2022-10-25T04:39:15.906Z,10.30
2022-10-25T04:41:42.875Z,10.30
2022-10-25T04:44:10.041Z,10.30
2022-10-25T04:46:36.929Z,10.30
2022-10-25T04:49:03.891Z,10.30
2022-10-25T04:51:30.816Z,10.30
2022-10-25T04:53:59.077Z,10.30
2022-10-25T04:56:28.546Z,10.40
2022-10-25T04:58:55.462Z,10.30
2022-10-25T05:01:22.385Z,10.40
2022-10-25T05:03:49.850Z,10.40
2022-10-25T05:06:18.647Z,10.40
2022-10-25T05:08:47.426Z,10.40
2022-10-25T05:11:17.783Z,10.40
2022-10-25T05:13:45.571Z,10.40
2022-10-25T05:16:16.869Z,10.40
2022-10-25T05:18:45.623Z,10.40
2022-10-25T05:21:14.007Z,10.40
2022-10-25T05:23:41.253Z,10.40
2022-10-25T05:26:10.985Z,10.40
2022-10-25T05:28:40.747Z,10.40
2022-10-25T05:33:41.705Z,10.40
2022-10-25T05:36:08.699Z,10.40
2022-10-25T05:38:37.656Z,10.40
2022-10-25T05:41:05.289Z,10.40
2022-10-25T05:43:32.333Z,10.40
2022-10-25T05:46:05.702Z,10.40
2022-10-25T05:48:34.132Z,10.40
2022-10-25T05:51:28.946Z,10.30
2022-10-25T05:54:00.647Z,10.30
2022-10-25T05:56:29.096Z,10.30
2022-10-25T05:58:59.063Z,10.30
2022-10-25T06:01:27.645Z,10.30
2022-10-25T06:03:55.952Z,10.30
2022-10-25T06:06:23.907Z,10.30
2022-10-25T06:08:55.197Z,10.30
2022-10-25T06:11:22.139Z,10.30
2022-10-25T06:13:49.193Z,10.30
2022-10-25T06:16:18.487Z,10.30
2022-10-25T06:18:47.151Z,10.40
2022-10-25T06:21:16.135Z,10.40
2022-10-25T06:23:45.158Z,10.40
2022-10-25T06:26:13.898Z,10.40
2022-10-25T06:28:41.446Z,10.40
2022-10-25T06:31:09.997Z,10.50
2022-10-25T06:33:37.553Z,10.50
2022-10-25T06:36:08.073Z,10.60
2022-10-25T06:38:35.072Z,10.60
2022-10-25T06:41:03.722Z,10.60
2022-10-25T06:43:31.308Z,10.60
2022-10-25T06:45:58.568Z,10.60
2022-10-25T06:48:25.522Z,10.70
2022-10-25T06:51:01.133Z,10.70
2022-10-25T06:53:29.411Z,10.80
2022-10-25T06:56:04.286Z,10.80
2022-10-25T06:58:33.531Z,10.90
2022-10-25T07:01:01.797Z,11.10
2022-10-25T07:03:31.809Z,11.20
2022-10-25T07:05:59.816Z,11.40
2022-10-25T07:08:26.839Z,11.60
2022-10-25T07:10:55.945Z,12.10
2022-10-25T07:13:23.225Z,12.70
2022-10-25T07:15:50.431Z,13.10
2022-10-25T07:18:17.539Z,13.40
2022-10-25T07:20:48.379Z,13.80
2022-10-25T07:23:16.292Z,14.30
2022-10-25T07:25:43.473Z,14.70
2022-10-25T07:28:12.312Z,15.20
2022-10-25T07:30:45.587Z,15.60
2022-10-25T07:33:12.850Z,15.80
2022-10-25T07:35:52.203Z,16.10
2022-10-25T07:38:27.931Z,16.30
2022-10-25T07:40:58.712Z,16.70
2022-10-25T07:43:28.259Z,17.00
2022-10-25T07:45:55.773Z,17.30
2022-10-25T07:48:23.123Z,17.80
2022-10-25T07:50:50.084Z,18.20
2022-10-25T07:53:17.348Z,18.60
2022-10-25T07:55:49.196Z,18.80
2022-10-25T07:58:16.171Z,19.00
2022-10-25T08:00:44.467Z,19.20
2022-10-25T08:03:12.765Z,19.60
2022-10-25T08:05:40.438Z,20.00
2022-10-25T08:08:07.391Z,20.50
2022-10-25T08:10:34.349Z,20.70
2022-10-25T08:13:01.211Z,21.10
2022-10-25T08:15:28.068Z,21.00
2022-10-25T08:17:59.754Z,21.30
2022-10-25T08:20:49.147Z,21.60
2022-10-25T08:23:14.873Z,21.90
2022-10-25T08:25:42.240Z,22.20
2022-10-25T08:28:09.178Z,22.40
2022-10-25T08:30:36.143Z,22.60
2022-10-25T08:33:05.746Z,22.90
2022-10-25T08:35:35.220Z,23.60
2022-10-25T08:38:02.380Z,23.90
2022-10-25T08:40:42.966Z,24.30
2022-10-25T08:43:23.977Z,24.50
2022-10-25T08:45:56.527Z,24.60
2022-10-25T08:48:29.036Z,24.60
2022-10-25T08:51:00.588Z,24.90
2022-10-25T08:53:32.185Z,25.40
2022-10-25T08:56:15.555Z,26.00
2022-10-25T08:58:47.980Z,26.20
2022-10-25T09:01:19.653Z,26.50
2022-10-25T09:03:48.031Z,26.70
2022-10-25T09:06:23.299Z,26.90
2022-10-25T09:09:04.101Z,27.10
2022-10-25T09:11:45.192Z,27.20
2022-10-25T09:14:18.222Z,27.10
2022-10-25T09:16:51.467Z,27.20
2022-10-25T09:19:28.845Z,27.20
2022-10-25T09:21:59.989Z,26.80
2022-10-25T09:24:32.905Z,26.10
2022-10-25T09:27:06.329Z,25.50
2022-10-25T09:29:37.664Z,25.00
2022-10-25T09:32:12.113Z,24.60
2022-10-25T09:34:40.899Z,24.30
2022-10-25T09:37:16.714Z,24.10
2022-10-25T09:39:46.401Z,24.00
2022-10-25T09:42:19.870Z,23.90
2022-10-25T09:44:50.696Z,23.70
2022-10-25T09:47:28.598Z,23.70
2022-10-25T09:50:01.620Z,23.80
2022-10-25T09:52:36.744Z,23.80
2022-10-25T09:55:29.484Z,23.70
2022-10-25T09:57:56.472Z,23.80
2022-10-25T10:00:23.423Z,23.80
2022-10-25T10:02:50.495Z,23.90
2022-10-25T10:05:21.082Z,23.90
2022-10-25T10:07:50.032Z,24.10
2022-10-25T10:10:20.010Z,23.90
2022-10-25T10:12:53.421Z,23.70
2022-10-25T10:15:24.812Z,23.50
2022-10-25T10:18:23.061Z,23.40
2022-10-25T10:21:07.543Z,23.40
2022-10-25T10:23:44.011Z,23.20
2022-10-25T10:26:14.753Z,23.20
2022-10-25T10:28:45.774Z,23.40
2022-10-25T10:31:12.940Z,23.50
2022-10-25T10:33:41.076Z,23.50
2022-10-25T10:36:24.354Z,23.40
2022-10-25T10:38:51.407Z,23.30
2022-10-25T10:41:24.584Z,23.40
2022-10-25T10:43:52.249Z,23.50
2022-10-25T10:46:20.089Z,23.70
2022-10-25T10:48:54.227Z,23.90
2022-10-25T10:51:44.036Z,24.00
2022-10-25T10:54:25.368Z,24.00
2022-10-25T10:57:00.635Z,24.00
2022-10-25T10:59:40.639Z,24.00
2022-10-25T11:02:33.620Z,24.10
2022-10-25T11:05:00.791Z,24.30
2022-10-25T11:07:32.489Z,24.60
2022-10-25T11:10:19.548Z,24.60
2022-10-25T11:13:03.628Z,24.60
2022-10-25T11:15:34.302Z,24.40
2022-10-25T11:18:04.837Z,24.10
2022-10-25T11:20:38.978Z,24.10
2022-10-25T11:23:14.948Z,24.20
2022-10-25T11:25:48.032Z,24.40
2022-10-25T11:28:28.740Z,24.60
2022-10-25T11:31:06.153Z,24.50
2022-10-25T11:33:51.180Z,24.30
2022-10-25T11:36:42.864Z,24.30
2022-10-25T11:39:45.946Z,24.50
2022-10-25T11:42:39.660Z,24.50
2022-10-25T11:45:22.130Z,24.30
2022-10-25T11:48:01.907Z,24.30
2022-10-25T11:50:34.370Z,24.30
2022-10-25T11:53:23.139Z,24.40
2022-10-25T11:55:55.602Z,24.40
2022-10-25T11:58:34.810Z,24.50
2022-10-25T12:01:14.854Z,24.70
2022-10-25T12:04:02.588Z,24.80
2022-10-25T12:06:35.375Z,24.90
2022-10-25T12:09:07.856Z,25.00
2022-10-25T12:11:41.725Z,25.10
2022-10-25T12:14:13.813Z,25.20
2022-10-25T12:16:41.664Z,25.20
2022-10-25T12:19:14.618Z,25.10
2022-10-25T12:21:45.681Z,24.90
2022-10-25T12:24:19.833Z,24.60
2022-10-25T12:26:50.367Z,24.10
2022-10-25T12:29:21.041Z,23.80
2022-10-25T12:31:56.609Z,23.50
2022-10-25T12:34:29.725Z,23.20
2022-10-25T12:37:03.025Z,22.60
2022-10-25T12:39:38.628Z,22.40
2022-10-25T12:42:14.603Z,22.50
2022-10-25T12:45:03.194Z,22.80
2022-10-25T12:47:42.739Z,23.10
2022-10-25T12:50:27.506Z,23.40
2022-10-25T12:53:29.675Z,23.40
2022-10-25T12:56:04.108Z,23.60
2022-10-25T12:58:53.332Z,23.60
2022-10-25T13:01:34.817Z,23.50
2022-10-25T13:04:27.494Z,23.50
2022-10-25T13:06:56.398Z,23.60
2022-10-25T13:09:29.917Z,23.80
2022-10-25T13:12:00.419Z,23.80
2022-10-25T13:14:31.982Z,23.80
2022-10-25T13:17:36.504Z,23.90
2022-10-25T13:20:45.352Z,24.00
2022-10-25T13:23:53.860Z,24.20
2022-10-25T13:26:25.622Z,24.20
2022-10-25T13:28:54.466Z,24.20
2022-10-25T13:31:57.214Z,24.20
2022-10-25T13:34:34.354Z,24.10
2022-10-25T13:37:04.042Z,24.10
2022-10-25T13:39:35.370Z,23.80
2022-10-25T13:42:09.971Z,23.60
2022-10-25T13:44:39.439Z,23.60
2022-10-25T13:47:35.238Z,23.60
2022-10-25T13:50:11.418Z,23.40
2022-10-25T13:52:43.658Z,23.30
2022-10-25T13:55:15.925Z,23.20
2022-10-25T13:57:51.806Z,23.00
2022-10-25T14:00:38.786Z,22.90
2022-10-25T14:03:24.605Z,22.90
2022-10-25T14:06:25.790Z,23.00
2022-10-25T14:09:09.955Z,23.10
2022-10-25T14:11:40.947Z,23.00
2022-10-25T14:14:19.516Z,22.90
2022-10-25T14:17:00.176Z,23.00
2022-10-25T14:19:37.623Z,23.00
2022-10-25T14:22:14.588Z,23.10
2022-10-25T14:24:42.575Z,23.10
2022-10-25T14:27:28.203Z,23.10
2022-10-25T14:30:23.581Z,23.10
2022-10-25T14:32:52.481Z,23.20
2022-10-25T14:35:21.348Z,23.20
2022-10-25T14:37:48.703Z,23.10
2022-10-25T14:40:21.452Z,23.10
2022-10-25T14:42:48.893Z,23.00
2022-10-25T14:45:21.899Z,22.90
2022-10-25T14:47:49.227Z,22.60
2022-10-25T14:50:17.915Z,22.20
2022-10-25T14:52:49.048Z,22.00
2022-10-25T14:55:21.488Z,21.90
2022-10-25T14:57:48.748Z,21.80
2022-10-25T15:00:21.087Z,21.80
2022-10-25T15:02:50.614Z,21.70
2022-10-25T15:05:19.870Z,21.70
2022-10-25T15:07:53.956Z,21.70
2022-10-25T15:10:38.908Z,21.60
2022-10-25T15:13:13.790Z,21.60
2022-10-25T15:15:44.682Z,21.50
2022-10-25T15:18:34.204Z,21.50
2022-10-25T15:21:09.659Z,21.50
2022-10-25T15:23:38.790Z,21.40
2022-10-25T15:26:23.839Z,21.40
2022-10-25T15:28:52.499Z,21.30
2022-10-25T15:31:24.550Z,21.20
2022-10-25T15:33:59.310Z,21.10
2022-10-25T15:36:27.569Z,21.00
2022-10-25T15:39:09.415Z,20.90
2022-10-25T15:41:39.812Z,20.80
2022-10-25T15:44:06.896Z,20.60
2022-10-25T15:46:34.927Z,20.50
2022-10-25T15:49:06.603Z,20.30
2022-10-25T15:51:34.434Z,20.20
2022-10-25T15:54:02.850Z,20.10
2022-10-25T15:56:30.046Z,19.90
2022-10-25T15:58:58.664Z,19.80
2022-10-25T16:01:25.775Z,19.60
2022-10-25T16:03:52.799Z,19.50
2022-10-25T16:06:19.684Z,19.40
2022-10-25T16:08:46.539Z,19.30
2022-10-25T16:11:18.874Z,19.30
2022-10-25T16:13:47.885Z,19.20
2022-10-25T16:16:39.290Z,19.10
2022-10-25T16:19:09.708Z,19.00
2022-10-25T16:21:36.587Z,18.80
2022-10-25T16:24:03.725Z,18.80
2022-10-25T16:26:35.968Z,18.60
2022-10-25T16:29:03.111Z,18.50
2022-10-25T16:31:30.060Z,18.50
2022-10-25T16:33:56.969Z,18.40
2022-10-25T16:36:24.289Z,18.30
2022-10-25T16:38:51.316Z,18.20
2022-10-25T16:41:23.729Z,18.10
2022-10-25T16:43:52.271Z,18.10
2022-10-25T16:46:19.225Z,18.00
2022-10-25T16:48:46.424Z,17.90
2022-10-25T16:51:14.364Z,17.80
2022-10-25T16:53:42.080Z,17.80
2022-10-25T16:56:11.341Z,17.70
2022-10-25T16:58:38.471Z,17.70
2022-10-25T17:01:19.657Z,17.50
2022-10-25T17:03:50.260Z,17.50
2022-10-25T17:06:39.703Z,17.40
2022-10-25T17:09:05.184Z,17.20
2022-10-25T17:11:32.112Z,17.20
2022-10-25T17:13:59.002Z,17.10
2022-10-25T17:16:27.262Z,17.00
2022-10-25T17:18:54.208Z,16.90
2022-10-25T17:21:21.132Z,16.80
2022-10-25T17:23:48.012Z,16.80
2022-10-25T17:26:14.936Z,16.70
2022-10-25T17:28:44.161Z,16.60
2022-10-25T17:31:13.155Z,16.50
2022-10-25T17:33:41.713Z,16.50
2022-10-25T17:36:10.769Z,16.40
2022-10-25T17:38:37.925Z,16.40
2022-10-25T17:41:05.223Z,16.40
2022-10-25T17:43:33.898Z,16.40
2022-10-25T17:46:01.994Z,16.30
2022-10-25T17:48:29.149Z,16.20
2022-10-25T17:51:02.489Z,16.10
2022-10-25T17:53:29.479Z,16.10
2022-10-25T17:55:56.465Z,16.00
2022-10-25T17:58:23.435Z,15.90
2022-10-25T18:00:50.735Z,15.80
2022-10-25T18:03:17.752Z,15.90
2022-10-25T18:05:44.629Z,15.80
2022-10-25T18:08:12.821Z,15.70
2022-10-25T18:10:39.787Z,15.70
2022-10-25T18:13:06.686Z,15.60
2022-10-25T18:15:35.706Z,15.60
2022-10-25T18:18:02.636Z,15.60
2022-10-25T18:20:29.636Z,15.50
2022-10-25T18:22:56.641Z,15.50
2022-10-25T18:25:24.955Z,15.50
2022-10-25T18:27:51.980Z,15.40
2022-10-25T18:30:18.995Z,15.40
2022-10-25T18:32:45.884Z,15.40
2022-10-25T18:35:12.757Z,15.30
2022-10-25T18:37:39.806Z,15.20
2022-10-25T18:40:08.419Z,15.20
2022-10-25T18:42:38.132Z,15.20
2022-10-25T18:45:06.274Z,15.10
2022-10-25T18:47:33.246Z,15.00
2022-10-25T18:50:00.197Z,15.00
2022-10-25T18:52:27.502Z,14.90
2022-10-25T18:54:54.539Z,15.00
2022-10-25T18:57:21.503Z,15.00
2022-10-25T18:59:49.719Z,14.90
2022-10-25T19:02:16.741Z,14.80
2022-10-25T19:04:43.807Z,14.80
2022-10-25T19:07:10.780Z,14.80
2022-10-25T19:09:37.713Z,14.70
2022-10-25T19:12:05.510Z,14.70
2022-10-25T19:14:32.402Z,14.70
2022-10-25T19:17:00.791Z,14.70
2022-10-25T19:19:27.667Z,14.70
2022-10-25T19:21:54.535Z,14.70
2022-10-25T19:24:22.782Z,14.60
2022-10-25T19:26:49.974Z,14.60
2022-10-25T19:29:16.962Z,14.60
2022-10-25T19:31:43.871Z,14.50
2022-10-25T19:34:12.309Z,14.50
2022-10-25T19:36:39.251Z,14.40
2022-10-25T19:39:06.415Z,14.40
2022-10-25T19:41:33.401Z,14.50
2022-10-25T19:44:00.381Z,14.40
2022-10-25T19:46:27.325Z,14.40
2022-10-25T19:48:56.180Z,14.40
2022-10-25T19:51:24.463Z,14.30
2022-10-25T19:53:51.773Z,14.30
2022-10-25T19:56:20.361Z,14.30
2022-10-25T19:58:47.560Z,14.20
2022-10-25T20:01:16.542Z,14.20
2022-10-25T20:03:45.764Z,14.20
2022-10-25T20:06:20.067Z,14.10
2022-10-25T20:08:52.150Z,14.10
2022-10-25T20:11:19.139Z,14.10
2022-10-25T20:13:46.461Z,14.00
2022-10-25T20:16:14.103Z,14.00
2022-10-25T20:18:42.357Z,14.00
2022-10-25T20:21:11.526Z,14.00
2022-10-25T20:23:39.668Z,14.00
2022-10-25T20:26:12.838Z,14.00
2022-10-25T20:28:39.863Z,14.00
2022-10-25T20:31:07.374Z,14.00
2022-10-25T20:33:34.429Z,14.00
2022-10-25T20:36:02.912Z,14.00
2022-10-25T20:38:30.859Z,14.00
2022-10-25T20:41:02.612Z,14.00
2022-10-25T20:43:31.275Z,14.00
2022-10-25T20:45:58.203Z,14.00
2022-10-25T20:48:25.235Z,14.00
2022-10-25T20:50:53.252Z,14.00
2022-10-25T20:53:21.167Z,14.00
2022-10-25T20:55:48.954Z,14.00
2022-10-25T20:58:16.424Z,14.00
2022-10-25T21:00:45.143Z,14.00
2022-10-25T21:03:15.356Z,14.00
2022-10-25T21:05:45.380Z,14.00
2022-10-25T21:08:12.449Z,13.90
2022-10-25T21:10:39.719Z,14.00
2022-10-25T21:13:06.669Z,13.90
2022-10-25T21:15:33.678Z,13.90
2022-10-25T21:18:01.924Z,13.90
2022-10-25T21:20:29.133Z,13.90
2022-10-25T21:22:56.286Z,13.90
2022-10-25T21:25:23.154Z,13.90
2022-10-25T21:27:53.723Z,13.90
2022-10-25T21:30:20.724Z,13.80
2022-10-25T21:32:47.623Z,13.80
2022-10-25T21:35:15.941Z,13.80
2022-10-25T21:37:45.497Z,13.70
2022-10-25T21:40:15.927Z,13.70
2022-10-25T21:42:42.920Z,13.70
2022-10-25T21:45:11.217Z,13.80
2022-10-25T21:47:38.151Z,13.70
2022-10-25T21:50:06.363Z,13.70
2022-10-25T21:52:34.652Z,13.80
2022-10-25T21:55:01.726Z,13.80
2022-10-25T21:57:28.631Z,13.80
2022-10-25T21:59:55.569Z,13.90
2022-10-25T22:02:22.651Z,13.80
2022-10-25T22:04:49.607Z,13.80
2022-10-25T22:07:16.460Z,13.80
2022-10-25T22:09:44.834Z,13.80
2022-10-25T22:12:11.746Z,13.80
2022-10-25T22:14:38.642Z,13.70
2022-10-25T22:17:05.524Z,13.80
2022-10-25T22:19:32.448Z,13.80
2022-10-25T22:21:59.535Z,13.80
2022-10-25T22:24:26.423Z,13.70
2022-10-25T22:26:54.629Z,13.70
2022-10-25T22:29:21.560Z,13.70
2022-10-25T22:31:48.461Z,13.60
2022-10-25T22:34:15.323Z,13.60
2022-10-25T22:36:42.539Z,13.60
2022-10-25T22:39:09.714Z,13.70
2022-10-25T22:41:37.098Z,13.70
2022-10-25T22:44:05.440Z,13.70
2022-10-25T22:46:34.616Z,13.70
2022-10-25T22:49:06.064Z,13.70
2022-10-25T22:51:33.386Z,13.70
2022-10-25T22:54:00.595Z,13.70
2022-10-25T22:56:30.459Z,13.70
2022-10-25T22:59:01.993Z,13.70
2022-10-25T23:01:31.761Z,13.70
2022-10-25T23:03:59.708Z,13.70
2022-10-25T23:06:28.349Z,13.60
2022-10-25T23:08:56.381Z,13.60
2022-10-25T23:11:25.169Z,13.70
2022-10-25T23:13:52.385Z,13.70
2022-10-25T23:16:19.831Z,13.70
2022-10-25T23:18:48.367Z,13.60
2022-10-25T23:21:17.937Z,13.60
2022-10-25T23:23:45.967Z,13.70
2022-10-25T23:26:16.594Z,13.60
2022-10-25T23:28:43.572Z,13.70
2022-10-25T23:31:12.143Z,13.60
2022-10-25T23:33:39.676Z,13.60
2022-10-25T23:36:11.417Z,13.50
2022-10-25T23:38:38.628Z,13.50
2022-10-25T23:41:05.901Z,13.50
2022-10-25T23:43:33.259Z,13.50
2022-10-25T23:46:00.437Z,13.60
2022-10-25T23:48:27.624Z,13.60
2022-10-25T23:50:56.084Z,13.60
2022-10-25T23:53:24.731Z,13.60
2022-10-25T23:55:52.324Z,13.60
2022-10-25T23:58:19.206Z,13.60
